sensor_id;sensor_type;location;lat;lon;timestamp;P1;durP1;ratioP1;P2;durP2;ratioP2
84687;SDS011;74908;42.040;21.322;2024-02-16T00:00:38;7.88;;;4.78;;
84687;SDS011;74908;42.040;21.322;2024-02-16T00:03:09;12.10;;;5.00;;
84687;SDS011;74908;42.040;21.322;2024-02-16T00:05:35;7.53;;;4.55;;
84687;SDS011;74908;42.040;21.322;2024-02-16T00:08:02;9.43;;;5.10;;
84687;SDS011;74908;42.040;21.322;2024-02-16T00:10:29;6.80;;;4.25;;
84687;SDS011;74908;42.040;21.322;2024-02-16T00:12:56;8.68;;;5.57;;
84687;SDS011;74908;42.040;21.322;2024-02-16T00:15:22;7.32;;;3.80;;
84687;SDS011;74908;42.040;21.322;2024-02-16T00:17:49;9.02;;;4.95;;
84687;SDS011;74908;42.040;21.322;2024-02-16T00:20:15;7.70;;;4.47;;
84687;SDS011;74908;42.040;21.322;2024-02-16T00:22:43;7.75;;;3.72;;
84687;SDS011;74908;42.040;21.322;2024-02-16T00:25:09;7.47;;;4.57;;
84687;SDS011;74908;42.040;21.322;2024-02-16T00:27:36;9.65;;;4.90;;
84687;SDS011;74908;42.040;21.322;2024-02-16T00:30:04;11.95;;;5.50;;
84687;SDS011;74908;42.040;21.322;2024-02-16T00:32:30;12.68;;;5.65;;
84687;SDS011;74908;42.040;21.322;2024-02-16T00:34:57;10.13;;;4.88;;
84687;SDS011;74908;42.040;21.322;2024-02-16T00:37:23;7.30;;;4.00;;
84687;SDS011;74908;42.040;21.322;2024-02-16T00:39:49;9.52;;;5.45;;
84687;SDS011;74908;42.040;21.322;2024-02-16T00:42:17;10.38;;;5.85;;
84687;SDS011;74908;42.040;21.322;2024-02-16T00:44:44;8.48;;;5.35;;
84687;SDS011;74908;42.040;21.322;2024-02-16T00:47:10;7.68;;;4.93;;
84687;SDS011;74908;42.040;21.322;2024-02-16T00:49:36;10.52;;;4.82;;
84687;SDS011;74908;42.040;21.322;2024-02-16T00:52:02;11.32;;;5.88;;
84687;SDS011;74908;42.040;21.322;2024-02-16T00:54:30;14.35;;;6.30;;
84687;SDS011;74908;42.040;21.322;2024-02-16T00:56:56;14.80;;;7.22;;
84687;SDS011;74908;42.040;21.322;2024-02-16T00:59:27;14.40;;;8.40;;
84687;SDS011;74908;42.040;21.322;2024-02-16T01:01:53;15.65;;;7.38;;
84687;SDS011;74908;42.040;21.322;2024-02-16T01:04:20;13.30;;;7.40;;
84687;SDS011;74908;42.040;21.322;2024-02-16T01:06:47;15.15;;;8.10;;
84687;SDS011;74908;42.040;21.322;2024-02-16T01:09:13;19.63;;;10.25;;
84687;SDS011;74908;42.040;21.322;2024-02-16T01:11:41;18.77;;;8.95;;
84687;SDS011;74908;42.040;21.322;2024-02-16T01:14:08;15.95;;;8.80;;
84687;SDS011;74908;42.040;21.322;2024-02-16T01:16:34;16.20;;;6.18;;
84687;SDS011;74908;42.040;21.322;2024-02-16T01:19:01;13.68;;;7.28;;
84687;SDS011;74908;42.040;21.322;2024-02-16T01:21:27;15.30;;;7.32;;
84687;SDS011;74908;42.040;21.322;2024-02-16T01:23:53;8.20;;;5.50;;
84687;SDS011;74908;42.040;21.322;2024-02-16T01:26:20;14.35;;;5.57;;
84687;SDS011;74908;42.040;21.322;2024-02-16T01:28:46;17.40;;;8.02;;
84687;SDS011;74908;42.040;21.322;2024-02-16T01:31:14;15.55;;;7.15;;
84687;SDS011;74908;42.040;21.322;2024-02-16T01:33:40;13.30;;;7.35;;
84687;SDS011;74908;42.040;21.322;2024-02-16T01:36:07;10.50;;;5.72;;
84687;SDS011;74908;42.040;21.322;2024-02-16T01:38:34;12.63;;;6.88;;
84687;SDS011;74908;42.040;21.322;2024-02-16T01:41:00;10.02;;;5.47;;
84687;SDS011;74908;42.040;21.322;2024-02-16T01:43:27;22.55;;;6.43;;
84687;SDS011;74908;42.040;21.322;2024-02-16T01:45:54;13.23;;;7.40;;
84687;SDS011;74908;42.040;21.322;2024-02-16T01:48:22;13.18;;;7.07;;
84687;SDS011;74908;42.040;21.322;2024-02-16T01:50:48;13.30;;;5.80;;
84687;SDS011;74908;42.040;21.322;2024-02-16T01:53:15;9.80;;;6.05;;
84687;SDS011;74908;42.040;21.322;2024-02-16T01:55:46;12.85;;;6.57;;
84687;SDS011;74908;42.040;21.322;2024-02-16T01:58:13;10.45;;;5.90;;
84687;SDS011;74908;42.040;21.322;2024-02-16T02:00:40;9.63;;;5.30;;
84687;SDS011;74908;42.040;21.322;2024-02-16T02:03:06;10.90;;;6.40;;
84687;SDS011;74908;42.040;21.322;2024-02-16T02:05:33;13.00;;;5.63;;
84687;SDS011;74908;42.040;21.322;2024-02-16T02:08:08;10.05;;;5.78;;
84687;SDS011;74908;42.040;21.322;2024-02-16T02:10:35;13.27;;;7.05;;
84687;SDS011;74908;42.040;21.322;2024-02-16T02:13:01;12.35;;;5.97;;
84687;SDS011;74908;42.040;21.322;2024-02-16T02:15:27;11.60;;;6.22;;
84687;SDS011;74908;42.040;21.322;2024-02-16T02:17:54;12.35;;;6.63;;
84687;SDS011;74908;42.040;21.322;2024-02-16T02:20:20;10.00;;;5.88;;
84687;SDS011;74908;42.040;21.322;2024-02-16T02:22:46;13.95;;;6.15;;
84687;SDS011;74908;42.040;21.322;2024-02-16T02:25:12;9.80;;;6.05;;
84687;SDS011;74908;42.040;21.322;2024-02-16T02:27:38;12.73;;;6.10;;
84687;SDS011;74908;42.040;21.322;2024-02-16T02:30:04;9.73;;;6.22;;
84687;SDS011;74908;42.040;21.322;2024-02-16T02:32:31;10.25;;;5.57;;
84687;SDS011;74908;42.040;21.322;2024-02-16T02:34:57;8.80;;;4.47;;
84687;SDS011;74908;42.040;21.322;2024-02-16T02:37:24;11.07;;;5.25;;
84687;SDS011;74908;42.040;21.322;2024-02-16T02:39:50;10.55;;;5.22;;
84687;SDS011;74908;42.040;21.322;2024-02-16T02:42:17;10.43;;;5.07;;
84687;SDS011;74908;42.040;21.322;2024-02-16T02:44:43;10.85;;;6.50;;
84687;SDS011;74908;42.040;21.322;2024-02-16T02:47:15;9.90;;;5.25;;
84687;SDS011;74908;42.040;21.322;2024-02-16T02:49:42;12.27;;;6.25;;
84687;SDS011;74908;42.040;21.322;2024-02-16T02:52:08;9.63;;;5.30;;
84687;SDS011;74908;42.040;21.322;2024-02-16T02:54:35;11.45;;;5.40;;
84687;SDS011;74908;42.040;21.322;2024-02-16T02:57:02;8.95;;;4.35;;
84687;SDS011;74908;42.040;21.322;2024-02-16T02:59:28;7.70;;;4.78;;
84687;SDS011;74908;42.040;21.322;2024-02-16T03:01:54;10.95;;;5.47;;
84687;SDS011;74908;42.040;21.322;2024-02-16T03:04:21;13.27;;;6.43;;
84687;SDS011;74908;42.040;21.322;2024-02-16T03:06:47;8.13;;;5.20;;
84687;SDS011;74908;42.040;21.322;2024-02-16T03:09:13;11.88;;;6.47;;
84687;SDS011;74908;42.040;21.322;2024-02-16T03:11:40;21.33;;;7.25;;
84687;SDS011;74908;42.040;21.322;2024-02-16T03:14:06;13.30;;;5.75;;
84687;SDS011;74908;42.040;21.322;2024-02-16T03:16:33;16.33;;;6.63;;
84687;SDS011;74908;42.040;21.322;2024-02-16T03:18:59;14.70;;;5.47;;
84687;SDS011;74908;42.040;21.322;2024-02-16T03:21:25;11.02;;;5.13;;
84687;SDS011;74908;42.040;21.322;2024-02-16T03:23:52;10.43;;;5.05;;
84687;SDS011;74908;42.040;21.322;2024-02-16T03:26:19;13.80;;;6.38;;
84687;SDS011;74908;42.040;21.322;2024-02-16T03:28:46;12.20;;;6.50;;
84687;SDS011;74908;42.040;21.322;2024-02-16T03:31:19;11.93;;;6.32;;
84687;SDS011;74908;42.040;21.322;2024-02-16T03:33:46;13.27;;;6.38;;
84687;SDS011;74908;42.040;21.322;2024-02-16T03:36:13;12.63;;;6.60;;
84687;SDS011;74908;42.040;21.322;2024-02-16T03:38:46;11.88;;;6.38;;
84687;SDS011;74908;42.040;21.322;2024-02-16T03:41:17;14.57;;;6.85;;
84687;SDS011;74908;42.040;21.322;2024-02-16T03:43:43;16.63;;;6.90;;
84687;SDS011;74908;42.040;21.322;2024-02-16T03:46:10;9.15;;;5.72;;
84687;SDS011;74908;42.040;21.322;2024-02-16T03:48:36;11.95;;;6.25;;
84687;SDS011;74908;42.040;21.322;2024-02-16T03:51:03;13.82;;;6.70;;
84687;SDS011;74908;42.040;21.322;2024-02-16T03:53:29;12.82;;;6.93;;
84687;SDS011;74908;42.040;21.322;2024-02-16T03:55:55;13.63;;;6.15;;
84687;SDS011;74908;42.040;21.322;2024-02-16T03:58:22;14.40;;;7.18;;
84687;SDS011;74908;42.040;21.322;2024-02-16T04:00:48;12.52;;;6.07;;
84687;SDS011;74908;42.040;21.322;2024-02-16T04:03:15;11.32;;;6.00;;
84687;SDS011;74908;42.040;21.322;2024-02-16T04:05:41;10.63;;;5.85;;
84687;SDS011;74908;42.040;21.322;2024-02-16T04:08:08;10.15;;;6.05;;
84687;SDS011;74908;42.040;21.322;2024-02-16T04:10:35;15.10;;;7.40;;
84687;SDS011;74908;42.040;21.322;2024-02-16T04:13:01;13.13;;;5.78;;
84687;SDS011;74908;42.040;21.322;2024-02-16T04:15:28;9.95;;;6.00;;
84687;SDS011;74908;42.040;21.322;2024-02-16T04:17:54;12.75;;;5.90;;
84687;SDS011;74908;42.040;21.322;2024-02-16T04:20:21;12.30;;;5.53;;
84687;SDS011;74908;42.040;21.322;2024-02-16T04:22:47;12.80;;;6.03;;
84687;SDS011;74908;42.040;21.322;2024-02-16T04:25:14;7.93;;;4.95;;
84687;SDS011;74908;42.040;21.322;2024-02-16T04:27:40;10.43;;;5.32;;
84687;SDS011;74908;42.040;21.322;2024-02-16T04:30:06;10.38;;;5.90;;
84687;SDS011;74908;42.040;21.322;2024-02-16T04:32:33;9.30;;;5.28;;
84687;SDS011;74908;42.040;21.322;2024-02-16T04:34:59;10.93;;;5.28;;
84687;SDS011;74908;42.040;21.322;2024-02-16T04:37:25;11.80;;;5.63;;
84687;SDS011;74908;42.040;21.322;2024-02-16T04:39:52;9.07;;;4.55;;
84687;SDS011;74908;42.040;21.322;2024-02-16T04:42:18;12.50;;;5.15;;
84687;SDS011;74908;42.040;21.322;2024-02-16T04:44:44;11.95;;;5.68;;
84687;SDS011;74908;42.040;21.322;2024-02-16T04:47:10;8.85;;;5.10;;
84687;SDS011;74908;42.040;21.322;2024-02-16T04:49:37;16.58;;;6.28;;
84687;SDS011;74908;42.040;21.322;2024-02-16T04:52:03;10.77;;;5.57;;
84687;SDS011;74908;42.040;21.322;2024-02-16T04:54:30;11.60;;;5.85;;
84687;SDS011;74908;42.040;21.322;2024-02-16T04:56:56;10.52;;;4.35;;
84687;SDS011;74908;42.040;21.322;2024-02-16T04:59:22;9.40;;;5.35;;
84687;SDS011;74908;42.040;21.322;2024-02-16T05:01:48;8.80;;;5.15;;
84687;SDS011;74908;42.040;21.322;2024-02-16T05:04:15;11.60;;;6.10;;
84687;SDS011;74908;42.040;21.322;2024-02-16T05:06:42;11.18;;;5.85;;
84687;SDS011;74908;42.040;21.322;2024-02-16T05:09:11;10.43;;;5.43;;
84687;SDS011;74908;42.040;21.322;2024-02-16T05:11:45;7.78;;;4.35;;
84687;SDS011;74908;42.040;21.322;2024-02-16T05:14:11;10.90;;;5.28;;
84687;SDS011;74908;42.040;21.322;2024-02-16T05:16:42;9.27;;;5.72;;
84687;SDS011;74908;42.040;21.322;2024-02-16T05:21:34;11.73;;;5.72;;
84687;SDS011;74908;42.040;21.322;2024-02-16T05:24:01;10.18;;;5.63;;
84687;SDS011;74908;42.040;21.322;2024-02-16T05:26:27;10.90;;;5.18;;
84687;SDS011;74908;42.040;21.322;2024-02-16T05:28:53;9.23;;;5.07;;
84687;SDS011;74908;42.040;21.322;2024-02-16T05:31:20;12.30;;;4.70;;
84687;SDS011;74908;42.040;21.322;2024-02-16T05:33:50;11.50;;;4.85;;
84687;SDS011;74908;42.040;21.322;2024-02-16T05:36:17;12.38;;;4.88;;
84687;SDS011;74908;42.040;21.322;2024-02-16T05:38:45;12.35;;;5.88;;
84687;SDS011;74908;42.040;21.322;2024-02-16T05:41:11;8.20;;;4.55;;
84687;SDS011;74908;42.040;21.322;2024-02-16T05:43:38;11.70;;;5.07;;
84687;SDS011;74908;42.040;21.322;2024-02-16T05:46:05;10.85;;;5.35;;
84687;SDS011;74908;42.040;21.322;2024-02-16T05:48:32;6.90;;;4.38;;
84687;SDS011;74908;42.040;21.322;2024-02-16T05:51:03;9.93;;;5.55;;
84687;SDS011;74908;42.040;21.322;2024-02-16T05:53:30;8.95;;;4.85;;
84687;SDS011;74908;42.040;21.322;2024-02-16T05:55:57;11.93;;;5.25;;
84687;SDS011;74908;42.040;21.322;2024-02-16T05:58:24;11.98;;;4.82;;
84687;SDS011;74908;42.040;21.322;2024-02-16T06:00:50;10.25;;;4.65;;
84687;SDS011;74908;42.040;21.322;2024-02-16T06:03:16;8.85;;;4.50;;
84687;SDS011;74908;42.040;21.322;2024-02-16T06:05:42;9.43;;;4.60;;
84687;SDS011;74908;42.040;21.322;2024-02-16T06:08:12;11.55;;;4.63;;
84687;SDS011;74908;42.040;21.322;2024-02-16T06:10:39;11.35;;;5.38;;
84687;SDS011;74908;42.040;21.322;2024-02-16T06:13:06;11.50;;;5.50;;
84687;SDS011;74908;42.040;21.322;2024-02-16T06:15:33;9.45;;;4.93;;
84687;SDS011;74908;42.040;21.322;2024-02-16T06:17:59;8.73;;;5.28;;
84687;SDS011;74908;42.040;21.322;2024-02-16T06:20:26;9.93;;;5.03;;
84687;SDS011;74908;42.040;21.322;2024-02-16T06:22:52;11.45;;;5.20;;
84687;SDS011;74908;42.040;21.322;2024-02-16T06:25:19;10.95;;;5.13;;
84687;SDS011;74908;42.040;21.322;2024-02-16T06:27:45;11.40;;;5.40;;
84687;SDS011;74908;42.040;21.322;2024-02-16T06:30:12;9.35;;;4.28;;
84687;SDS011;74908;42.040;21.322;2024-02-16T06:32:39;14.07;;;6.13;;
84687;SDS011;74908;42.040;21.322;2024-02-16T06:35:09;10.55;;;5.53;;
84687;SDS011;74908;42.040;21.322;2024-02-16T06:37:36;15.05;;;5.57;;
84687;SDS011;74908;42.040;21.322;2024-02-16T06:40:04;10.88;;;5.22;;
84687;SDS011;74908;42.040;21.322;2024-02-16T06:42:32;12.82;;;5.65;;
84687;SDS011;74908;42.040;21.322;2024-02-16T06:45:00;10.38;;;5.05;;
84687;SDS011;74908;42.040;21.322;2024-02-16T06:47:26;9.38;;;5.55;;
84687;SDS011;74908;42.040;21.322;2024-02-16T06:49:54;10.73;;;5.53;;
84687;SDS011;74908;42.040;21.322;2024-02-16T06:52:20;14.25;;;6.57;;
84687;SDS011;74908;42.040;21.322;2024-02-16T06:54:47;15.80;;;6.80;;
84687;SDS011;74908;42.040;21.322;2024-02-16T06:57:15;13.45;;;5.70;;
84687;SDS011;74908;42.040;21.322;2024-02-16T06:59:42;14.93;;;5.80;;
84687;SDS011;74908;42.040;21.322;2024-02-16T07:02:08;9.48;;;5.47;;
84687;SDS011;74908;42.040;21.322;2024-02-16T07:04:36;14.63;;;5.47;;
84687;SDS011;74908;42.040;21.322;2024-02-16T07:07:02;13.32;;;5.72;;
84687;SDS011;74908;42.040;21.322;2024-02-16T07:09:29;8.68;;;5.28;;
84687;SDS011;74908;42.040;21.322;2024-02-16T07:11:55;9.82;;;5.65;;
84687;SDS011;74908;42.040;21.322;2024-02-16T07:14:21;20.52;;;6.20;;
84687;SDS011;74908;42.040;21.322;2024-02-16T07:16:47;12.80;;;6.65;;
84687;SDS011;74908;42.040;21.322;2024-02-16T07:19:13;13.25;;;7.03;;
84687;SDS011;74908;42.040;21.322;2024-02-16T07:21:40;11.18;;;6.93;;
84687;SDS011;74908;42.040;21.322;2024-02-16T07:24:06;11.23;;;6.68;;
84687;SDS011;74908;42.040;21.322;2024-02-16T07:26:34;12.90;;;7.63;;
84687;SDS011;74908;42.040;21.322;2024-02-16T07:29:01;12.02;;;7.70;;
84687;SDS011;74908;42.040;21.322;2024-02-16T07:31:34;14.50;;;7.50;;
84687;SDS011;74908;42.040;21.322;2024-02-16T07:34:02;11.95;;;6.75;;
84687;SDS011;74908;42.040;21.322;2024-02-16T07:36:28;16.70;;;7.22;;
84687;SDS011;74908;42.040;21.322;2024-02-16T07:38:54;12.95;;;7.57;;
84687;SDS011;74908;42.040;21.322;2024-02-16T07:41:21;11.30;;;6.25;;
84687;SDS011;74908;42.040;21.322;2024-02-16T07:43:47;23.55;;;7.03;;
84687;SDS011;74908;42.040;21.322;2024-02-16T07:46:13;10.27;;;6.25;;
84687;SDS011;74908;42.040;21.322;2024-02-16T07:48:39;12.70;;;6.22;;
84687;SDS011;74908;42.040;21.322;2024-02-16T07:51:05;13.40;;;7.22;;
84687;SDS011;74908;42.040;21.322;2024-02-16T07:53:33;11.98;;;7.03;;
84687;SDS011;74908;42.040;21.322;2024-02-16T07:55:59;10.63;;;6.30;;
84687;SDS011;74908;42.040;21.322;2024-02-16T07:58:25;13.93;;;7.25;;
84687;SDS011;74908;42.040;21.322;2024-02-16T08:00:51;13.98;;;6.65;;
84687;SDS011;74908;42.040;21.322;2024-02-16T08:03:19;13.52;;;6.70;;
84687;SDS011;74908;42.040;21.322;2024-02-16T08:05:45;15.27;;;6.60;;
84687;SDS011;74908;42.040;21.322;2024-02-16T08:08:11;12.60;;;6.95;;
84687;SDS011;74908;42.040;21.322;2024-02-16T08:10:37;14.95;;;7.40;;
84687;SDS011;74908;42.040;21.322;2024-02-16T08:13:03;15.40;;;8.18;;
84687;SDS011;74908;42.040;21.322;2024-02-16T08:15:30;16.60;;;9.50;;
84687;SDS011;74908;42.040;21.322;2024-02-16T08:17:56;18.88;;;9.80;;
84687;SDS011;74908;42.040;21.322;2024-02-16T08:20:22;18.55;;;9.98;;
84687;SDS011;74908;42.040;21.322;2024-02-16T08:22:48;22.92;;;11.60;;
84687;SDS011;74908;42.040;21.322;2024-02-16T08:25:14;19.08;;;10.25;;
84687;SDS011;74908;42.040;21.322;2024-02-16T08:27:41;20.75;;;10.35;;
84687;SDS011;74908;42.040;21.322;2024-02-16T08:30:07;16.98;;;9.68;;
84687;SDS011;74908;42.040;21.322;2024-02-16T08:32:36;17.52;;;10.27;;
84687;SDS011;74908;42.040;21.322;2024-02-16T08:35:02;17.83;;;8.73;;
84687;SDS011;74908;42.040;21.322;2024-02-16T08:37:28;17.88;;;10.23;;
84687;SDS011;74908;42.040;21.322;2024-02-16T08:39:54;16.05;;;9.70;;
84687;SDS011;74908;42.040;21.322;2024-02-16T08:42:21;19.30;;;9.85;;
84687;SDS011;74908;42.040;21.322;2024-02-16T08:44:54;18.80;;;11.45;;
84687;SDS011;74908;42.040;21.322;2024-02-16T08:47:24;17.50;;;10.43;;
84687;SDS011;74908;42.040;21.322;2024-02-16T08:49:51;17.40;;;10.60;;
84687;SDS011;74908;42.040;21.322;2024-02-16T08:52:17;19.73;;;11.38;;
84687;SDS011;74908;42.040;21.322;2024-02-16T08:54:43;19.55;;;10.10;;
84687;SDS011;74908;42.040;21.322;2024-02-16T08:57:14;21.00;;;10.23;;
84687;SDS011;74908;42.040;21.322;2024-02-16T09:00:21;20.45;;;9.15;;
84687;SDS011;74908;42.040;21.322;2024-02-16T09:02:48;19.70;;;9.60;;
84687;SDS011;74908;42.040;21.322;2024-02-16T09:05:17;18.25;;;10.63;;
84687;SDS011;74908;42.040;21.322;2024-02-16T09:07:47;20.50;;;10.90;;
84687;SDS011;74908;42.040;21.322;2024-02-16T09:10:14;17.45;;;10.02;;
84687;SDS011;74908;42.040;21.322;2024-02-16T09:12:40;18.75;;;11.30;;
84687;SDS011;74908;42.040;21.322;2024-02-16T09:15:06;21.80;;;9.95;;
84687;SDS011;74908;42.040;21.322;2024-02-16T09:17:33;19.05;;;9.45;;
84687;SDS011;74908;42.040;21.322;2024-02-16T09:19:59;15.35;;;9.68;;
84687;SDS011;74908;42.040;21.322;2024-02-16T09:22:28;16.70;;;9.45;;
84687;SDS011;74908;42.040;21.322;2024-02-16T09:24:54;20.27;;;9.85;;
84687;SDS011;74908;42.040;21.322;2024-02-16T09:27:24;19.25;;;9.07;;
84687;SDS011;74908;42.040;21.322;2024-02-16T09:29:51;15.52;;;9.48;;
84687;SDS011;74908;42.040;21.322;2024-02-16T09:32:17;17.10;;;10.60;;
84687;SDS011;74908;42.040;21.322;2024-02-16T09:34:43;15.10;;;10.13;;
84687;SDS011;74908;42.040;21.322;2024-02-16T09:37:10;18.02;;;10.88;;
84687;SDS011;74908;42.040;21.322;2024-02-16T09:39:38;16.70;;;10.23;;
84687;SDS011;74908;42.040;21.322;2024-02-16T09:42:04;18.15;;;10.07;;
84687;SDS011;74908;42.040;21.322;2024-02-16T09:44:30;20.23;;;11.88;;
84687;SDS011;74908;42.040;21.322;2024-02-16T09:46:58;19.13;;;11.32;;
84687;SDS011;74908;42.040;21.322;2024-02-16T09:49:26;22.23;;;12.23;;
84687;SDS011;74908;42.040;21.322;2024-02-16T09:51:52;24.90;;;12.10;;
84687;SDS011;74908;42.040;21.322;2024-02-16T09:54:21;23.88;;;10.93;;
84687;SDS011;74908;42.040;21.322;2024-02-16T09:56:47;22.20;;;11.85;;
84687;SDS011;74908;42.040;21.322;2024-02-16T09:59:13;17.50;;;10.77;;
84687;SDS011;74908;42.040;21.322;2024-02-16T10:01:39;22.05;;;11.40;;
84687;SDS011;74908;42.040;21.322;2024-02-16T10:04:06;19.17;;;9.88;;
84687;SDS011;74908;42.040;21.322;2024-02-16T10:06:33;17.42;;;10.25;;
84687;SDS011;74908;42.040;21.322;2024-02-16T10:08:59;19.70;;;9.60;;
84687;SDS011;74908;42.040;21.322;2024-02-16T10:11:31;17.02;;;9.13;;
84687;SDS011;74908;42.040;21.322;2024-02-16T10:13:58;19.00;;;10.40;;
84687;SDS011;74908;42.040;21.322;2024-02-16T10:16:25;25.67;;;9.15;;
84687;SDS011;74908;42.040;21.322;2024-02-16T10:18:54;16.70;;;8.52;;
84687;SDS011;74908;42.040;21.322;2024-02-16T10:21:24;19.50;;;9.48;;
84687;SDS011;74908;42.040;21.322;2024-02-16T10:24:00;17.80;;;9.40;;
84687;SDS011;74908;42.040;21.322;2024-02-16T10:26:30;21.90;;;8.85;;
84687;SDS011;74908;42.040;21.322;2024-02-16T10:28:57;21.83;;;8.13;;
84687;SDS011;74908;42.040;21.322;2024-02-16T10:31:24;15.05;;;8.85;;
84687;SDS011;74908;42.040;21.322;2024-02-16T10:33:58;13.20;;;7.97;;
84687;SDS011;74908;42.040;21.322;2024-02-16T10:36:25;14.93;;;8.68;;
84687;SDS011;74908;42.040;21.322;2024-02-16T10:38:54;17.02;;;7.95;;
84687;SDS011;74908;42.040;21.322;2024-02-16T10:41:42;14.80;;;8.90;;
84687;SDS011;74908;42.040;21.322;2024-02-16T10:44:08;15.20;;;8.48;;
84687;SDS011;74908;42.040;21.322;2024-02-16T10:46:34;14.65;;;7.43;;
84687;SDS011;74908;42.040;21.322;2024-02-16T10:49:00;14.88;;;8.98;;
84687;SDS011;74908;42.040;21.322;2024-02-16T10:51:31;14.13;;;7.95;;
84687;SDS011;74908;42.040;21.322;2024-02-16T10:54:00;13.35;;;8.80;;
84687;SDS011;74908;42.040;21.322;2024-02-16T10:56:27;16.92;;;8.27;;
84687;SDS011;74908;42.040;21.322;2024-02-16T10:58:53;22.70;;;8.38;;
84687;SDS011;74908;42.040;21.322;2024-02-16T11:01:20;14.02;;;8.73;;
84687;SDS011;74908;42.040;21.322;2024-02-16T11:03:47;13.02;;;7.35;;
84687;SDS011;74908;42.040;21.322;2024-02-16T11:06:17;16.70;;;8.82;;
84687;SDS011;74908;42.040;21.322;2024-02-16T11:08:43;12.90;;;7.93;;
84687;SDS011;74908;42.040;21.322;2024-02-16T11:11:09;13.52;;;7.90;;
84687;SDS011;74908;42.040;21.322;2024-02-16T11:13:38;14.02;;;8.48;;
84687;SDS011;74908;42.040;21.322;2024-02-16T11:16:08;13.13;;;8.32;;
84687;SDS011;74908;42.040;21.322;2024-02-16T11:18:41;12.57;;;8.20;;
84687;SDS011;74908;42.040;21.322;2024-02-16T11:21:15;11.90;;;7.97;;
84687;SDS011;74908;42.040;21.322;2024-02-16T11:23:42;23.30;;;7.95;;
84687;SDS011;74908;42.040;21.322;2024-02-16T11:26:09;13.80;;;7.68;;
84687;SDS011;74908;42.040;21.322;2024-02-16T11:28:40;13.23;;;7.57;;
84687;SDS011;74908;42.040;21.322;2024-02-16T11:31:07;12.05;;;6.88;;
84687;SDS011;74908;42.040;21.322;2024-02-16T11:33:33;14.00;;;7.55;;
84687;SDS011;74908;42.040;21.322;2024-02-16T11:36:00;12.63;;;8.70;;
84687;SDS011;74908;42.040;21.322;2024-02-16T11:38:32;12.07;;;6.97;;
84687;SDS011;74908;42.040;21.322;2024-02-16T11:40:59;14.73;;;7.80;;
84687;SDS011;74908;42.040;21.322;2024-02-16T11:43:26;13.50;;;7.28;;
84687;SDS011;74908;42.040;21.322;2024-02-16T11:45:52;13.50;;;7.75;;
84687;SDS011;74908;42.040;21.322;2024-02-16T11:48:19;14.43;;;7.72;;
84687;SDS011;74908;42.040;21.322;2024-02-16T11:50:49;18.10;;;8.07;;
84687;SDS011;74908;42.040;21.322;2024-02-16T11:53:18;12.55;;;7.40;;
84687;SDS011;74908;42.040;21.322;2024-02-16T11:56:06;14.40;;;7.57;;
84687;SDS011;74908;42.040;21.322;2024-02-16T11:58:32;12.73;;;8.00;;
84687;SDS011;74908;42.040;21.322;2024-02-16T12:00:58;12.48;;;7.85;;
84687;SDS011;74908;42.040;21.322;2024-02-16T12:03:25;11.98;;;6.57;;
84687;SDS011;74908;42.040;21.322;2024-02-16T12:05:53;16.35;;;8.07;;
84687;SDS011;74908;42.040;21.322;2024-02-16T12:08:20;14.77;;;7.72;;
84687;SDS011;74908;42.040;21.322;2024-02-16T12:10:47;17.00;;;7.82;;
84687;SDS011;74908;42.040;21.322;2024-02-16T12:13:17;16.98;;;8.68;;
84687;SDS011;74908;42.040;21.322;2024-02-16T12:15:44;14.18;;;8.88;;
84687;SDS011;74908;42.040;21.322;2024-02-16T12:18:10;15.05;;;8.45;;
84687;SDS011;74908;42.040;21.322;2024-02-16T12:20:39;13.32;;;8.15;;
84687;SDS011;74908;42.040;21.322;2024-02-16T12:23:12;15.05;;;9.63;;
84687;SDS011;74908;42.040;21.322;2024-02-16T12:25:38;13.98;;;8.18;;
84687;SDS011;74908;42.040;21.322;2024-02-16T12:28:04;13.75;;;7.47;;
84687;SDS011;74908;42.040;21.322;2024-02-16T12:30:31;18.50;;;8.32;;
84687;SDS011;74908;42.040;21.322;2024-02-16T12:32:57;14.65;;;9.60;;
84687;SDS011;74908;42.040;21.322;2024-02-16T12:35:23;13.27;;;8.55;;
84687;SDS011;74908;42.040;21.322;2024-02-16T12:37:49;18.80;;;9.07;;
84687;SDS011;74908;42.040;21.322;2024-02-16T12:40:15;21.65;;;10.23;;
84687;SDS011;74908;42.040;21.322;2024-02-16T12:42:42;14.55;;;9.80;;
84687;SDS011;74908;42.040;21.322;2024-02-16T12:45:09;16.13;;;9.13;;
84687;SDS011;74908;42.040;21.322;2024-02-16T12:47:36;15.70;;;7.65;;
84687;SDS011;74908;42.040;21.322;2024-02-16T12:50:02;17.35;;;9.40;;
84687;SDS011;74908;42.040;21.322;2024-02-16T12:52:28;18.40;;;10.40;;
84687;SDS011;74908;42.040;21.322;2024-02-16T12:54:56;23.88;;;9.68;;
84687;SDS011;74908;42.040;21.322;2024-02-16T12:57:24;11.90;;;7.30;;
84687;SDS011;74908;42.040;21.322;2024-02-16T12:59:50;14.02;;;6.28;;
84687;SDS011;74908;42.040;21.322;2024-02-16T13:02:16;13.13;;;7.55;;
84687;SDS011;74908;42.040;21.322;2024-02-16T13:04:42;14.45;;;8.02;;
84687;SDS011;74908;42.040;21.322;2024-02-16T13:07:08;13.60;;;5.80;;
84687;SDS011;74908;42.040;21.322;2024-02-16T13:09:35;8.60;;;5.70;;
84687;SDS011;74908;42.040;21.322;2024-02-16T13:12:01;10.68;;;6.78;;
84687;SDS011;74908;42.040;21.322;2024-02-16T13:14:28;10.88;;;6.63;;
84687;SDS011;74908;42.040;21.322;2024-02-16T13:16:54;11.60;;;5.60;;
84687;SDS011;74908;42.040;21.322;2024-02-16T13:19:20;9.60;;;5.32;;
84687;SDS011;74908;42.040;21.322;2024-02-16T13:21:46;10.80;;;6.10;;
84687;SDS011;74908;42.040;21.322;2024-02-16T13:24:12;13.10;;;7.07;;
84687;SDS011;74908;42.040;21.322;2024-02-16T13:26:38;12.13;;;6.93;;
84687;SDS011;74908;42.040;21.322;2024-02-16T13:29:04;9.73;;;5.57;;
84687;SDS011;74908;42.040;21.322;2024-02-16T13:31:31;8.75;;;5.45;;
84687;SDS011;74908;42.040;21.322;2024-02-16T13:33:57;12.93;;;6.00;;
84687;SDS011;74908;42.040;21.322;2024-02-16T13:36:23;13.57;;;6.72;;
84687;SDS011;74908;42.040;21.322;2024-02-16T13:38:49;11.70;;;6.03;;
84687;SDS011;74908;42.040;21.322;2024-02-16T13:41:15;11.65;;;7.22;;
84687;SDS011;74908;42.040;21.322;2024-02-16T13:43:42;19.35;;;7.85;;
84687;SDS011;74908;42.040;21.322;2024-02-16T13:46:13;10.32;;;7.03;;
84687;SDS011;74908;42.040;21.322;2024-02-16T13:48:40;13.77;;;6.32;;
84687;SDS011;74908;42.040;21.322;2024-02-16T13:51:06;12.65;;;5.78;;
84687;SDS011;74908;42.040;21.322;2024-02-16T13:53:32;11.07;;;6.55;;
84687;SDS011;74908;42.040;21.322;2024-02-16T13:55:58;8.65;;;5.32;;
84687;SDS011;74908;42.040;21.322;2024-02-16T13:58:29;11.45;;;6.10;;
84687;SDS011;74908;42.040;21.322;2024-02-16T14:00:55;10.73;;;6.03;;
84687;SDS011;74908;42.040;21.322;2024-02-16T14:03:21;15.30;;;7.30;;
84687;SDS011;74908;42.040;21.322;2024-02-16T14:05:48;12.07;;;6.72;;
84687;SDS011;74908;42.040;21.322;2024-02-16T14:08:15;12.35;;;6.43;;
84687;SDS011;74908;42.040;21.322;2024-02-16T14:10:42;12.30;;;5.75;;
84687;SDS011;74908;42.040;21.322;2024-02-16T14:13:08;18.02;;;6.65;;
84687;SDS011;74908;42.040;21.322;2024-02-16T14:15:34;13.88;;;7.43;;
84687;SDS011;74908;42.040;21.322;2024-02-16T14:18:01;13.88;;;6.63;;
84687;SDS011;74908;42.040;21.322;2024-02-16T14:20:27;9.10;;;6.20;;
84687;SDS011;74908;42.040;21.322;2024-02-16T14:22:54;10.00;;;6.20;;
84687;SDS011;74908;42.040;21.322;2024-02-16T14:25:20;9.40;;;6.18;;